Time;durP1;ratioP1;P1;durP2;ratioP2;P2;SDS_P1;SDS_P2;PMS_P1;PMS_P2;Temp;Humidity;BMP_temperature;BMP_pressure;BME280_temperature;BME280_humidity;BME280_pressure;Samples;Min_cycle;Max_cycle;Signal;HPM_P1;HPM_P2
2022/04/27 00:00:51;;;;;;;10.65;7.60;;;6.80;99.90;;;;;;5009764;28;20099;-44
2022/04/27 00:03:16;;;;;;;15.13;7.80;;;6.50;99.90;;;;;;5009361;28;20124;-45
2022/04/27 00:05:42;;;;;;;12.25;8.20;;;6.60;99.90;;;;;;5007826;28;20532;-49
2022/04/27 00:08:08;;;;;;;12.00;8.32;;;6.60;99.90;;;;;;5008371;28;20048;-49
2022/04/27 00:10:34;;;;;;;16.85;7.57;;;6.50;99.90;;;;;;5009598;28;20053;-44
2022/04/27 00:12:59;;;;;;;13.18;7.72;;;7.00;99.90;;;;;;5008432;28;20041;-49
2022/04/27 00:15:28;;;;;;;13.85;8.00;;;6.70;99.90;;;;;;5008985;28;20055;-45
2022/04/27 00:17:54;;;;;;;12.90;7.95;;;6.60;99.90;;;;;;5009137;28;20060;-50
2022/04/27 00:20:19;;;;;;;12.00;6.75;;;6.60;99.90;;;;;;5010142;28;20069;-46
2022/04/27 00:22:45;;;;;;;11.52;6.43;;;6.90;99.90;;;;;;5008413;28;20143;-45
2022/04/27 00:25:11;;;;;;;11.90;6.90;;;7.40;99.90;;;;;;5079046;28;20086;-48
2022/04/27 00:27:37;;;;;;;10.75;6.28;;;6.90;99.90;;;;;;5090766;28;20031;-46
2022/04/27 00:30:05;;;;;;;14.45;7.35;;;7.50;99.90;;;;;;5091381;28;20036;-48
2022/04/27 00:32:30;;;;;;;10.55;6.70;;;6.90;99.90;;;;;;5092092;28;20046;-49
2022/04/27 00:34:56;;;;;;;13.32;6.72;;;8.10;99.90;;;;;;5093029;28;22243;-45
2022/04/27 00:37:25;;;;;;;9.88;6.80;;;6.70;99.90;;;;;;5093801;28;20056;-49
2022/04/27 00:39:52;;;;;;;12.00;6.30;;;6.90;99.90;;;;;;5092377;28;20126;-49
2022/04/27 00:42:21;;;;;;;18.92;6.88;;;6.80;99.90;;;;;;5092616;28;20050;-48
2022/04/27 00:44:47;;;;;;;12.18;6.03;;;7.00;99.90;;;;;;5092011;28;20251;-47
2022/04/27 00:47:16;;;;;;;8.02;4.68;;;7.10;99.90;;;;;;5092347;28;20089;-49
2022/04/27 00:49:52;;;;;;;11.38;5.50;;;7.10;99.90;;;;;;5092601;28;20815;-46
2022/04/27 00:52:19;;;;;;;13.98;5.55;;;7.00;99.90;;;;;;5092212;28;20036;-45
2022/04/27 00:54:53;;;;;;;11.43;5.75;;;6.90;99.90;;;;;;5091820;28;20035;-48
2022/04/27 00:57:20;;;;;;;12.02;6.05;;;7.20;99.90;;;;;;5091806;28;20550;-47
2022/04/27 00:59:47;;;;;;;13.00;5.60;;;7.00;99.90;;;;;;5090411;28;20700;-47
2022/04/27 01:02:13;;;;;;;13.10;6.75;;;7.40;99.90;;;;;;5096775;28;20051;-47
2022/04/27 01:04:39;;;;;;;12.55;6.07;;;8.00;99.90;;;;;;5094869;28;20126;-48
2022/04/27 01:07:06;;;;;;;9.10;5.10;;;7.00;99.90;;;;;;5095854;28;20485;-49
2022/04/27 01:09:32;;;;;;;12.43;5.32;;;7.80;99.90;;;;;;5095013;28;20039;-46
2022/04/27 01:11:59;;;;;;;10.80;5.88;;;7.20;99.90;;;;;;5094680;28;20040;-45
2022/04/27 01:14:25;;;;;;;9.02;4.93;;;7.10;99.90;;;;;;5111452;27;20051;-49
2022/04/27 01:16:55;;;;;;;11.65;6.40;;;7.10;99.90;;;;;;5094595;28;20055;-48
2022/04/27 01:19:24;;;;;;;12.48;5.32;;;7.20;99.90;;;;;;5095164;28;20048;-49
2022/04/27 01:21:50;;;;;;;14.18;5.63;;;8.30;99.90;;;;;;5095196;28;20491;-46
2022/04/27 01:24:20;;;;;;;9.70;5.10;;;7.20;99.90;;;;;;5095319;28;20043;-49
2022/04/27 01:26:49;;;;;;;11.50;5.32;;;7.20;99.90;;;;;;5096067;28;20071;-46
2022/04/27 01:29:18;;;;;;;12.35;5.22;;;8.60;99.90;;;;;;5095027;28;20047;-49
2022/04/27 01:31:45;;;;;;;9.93;5.22;;;7.10;99.90;;;;;;5094390;28;20775;-50
2022/04/27 01:34:12;;;;;;;9.10;5.22;;;7.30;99.90;;;;;;5094130;28;20032;-50
2022/04/27 01:36:38;;;;;;;10.63;5.18;;;7.20;99.90;;;;;;5093677;28;20420;-44
2022/04/27 01:39:05;;;;;;;12.32;5.32;;;7.10;99.90;;;;;;5095006;28;20050;-47
2022/04/27 01:41:30;;;;;;;11.63;5.43;;;7.10;99.90;;;;;;5094552;28;20499;-49
2022/04/27 01:43:58;;;;;;;9.60;4.47;;;7.10;99.90;;;;;;5095663;28;20040;-46
2022/04/27 01:46:25;;;;;;;8.48;4.88;;;7.10;99.90;;;;;;5095988;28;20040;-49
2022/04/27 01:48:51;;;;;;;11.07;4.85;;;8.40;99.90;;;;;;5095521;28;20522;-47
2022/04/27 01:54:17;;;;;;;12.82;5.30;;;7.90;99.90;;;;;;5094615;28;20595;-48
2022/04/27 01:56:49;;;;;;;15.15;6.15;;;7.00;99.90;;;;;;5094305;28;20040;-44
2022/04/27 01:59:15;;;;;;;11.00;5.13;;;7.00;99.90;;;;;;5094762;28;20079;-47
2022/04/27 02:01:41;;;;;;;11.30;5.57;;;7.10;99.90;;;;;;5094119;28;20039;-45
2022/04/27 02:04:10;;;;;;;12.60;5.25;;;7.00;99.90;;;;;;5095994;28;20071;-48
2022/04/27 02:06:35;;;;;;;8.30;4.90;;;7.20;99.90;;;;;;5093919;28;20052;-49
2022/04/27 02:09:06;;;;;;;10.80;5.30;;;7.70;99.90;;;;;;5094318;28;20468;-49
2022/04/27 02:11:32;;;;;;;10.73;4.88;;;7.10;99.90;;;;;;5093868;28;20122;-48
2022/04/27 02:13:59;;;;;;;11.40;5.13;;;7.10;99.90;;;;;;5094864;28;20031;-46
2022/04/27 02:16:26;;;;;;;9.02;5.35;;;6.90;99.90;;;;;;5094247;28;20042;-47
2022/04/27 02:18:52;;;;;;;13.65;5.53;;;6.90;99.90;;;;;;5094153;28;20043;-47
2022/04/27 02:21:18;;;;;;;10.07;5.70;;;7.00;99.90;;;;;;5095269;28;20089;-47
2022/04/27 02:23:46;;;;;;;14.20;5.85;;;7.10;99.90;;;;;;5094296;28;20185;-47
2022/04/27 02:26:14;;;;;;;10.70;5.53;;;7.60;99.90;;;;;;5093490;28;20036;-50
2022/04/27 02:28:40;;;;;;;10.90;4.90;;;6.20;99.90;;;;;;5093774;28;20035;-49
2022/04/27 02:31:08;;;;;;;9.38;5.85;;;6.80;99.90;;;;;;5094232;28;20530;-47
2022/04/27 02:33:34;;;;;;;9.73;5.45;;;6.90;99.90;;;;;;5094484;28;20035;-48
2022/04/27 02:35:59;;;;;;;15.30;5.93;;;6.90;99.90;;;;;;5093977;28;20050;-47
2022/04/27 02:38:27;;;;;;;13.70;5.57;;;8.60;99.90;;;;;;5093262;28;20665;-47
2022/04/27 02:40:54;;;;;;;11.45;5.65;;;6.90;99.90;;;;;;5093054;28;20397;-46
2022/04/27 02:43:21;;;;;;;12.70;5.20;;;6.80;99.90;;;;;;5075982;28;20043;-49
2022/04/27 02:45:48;;;;;;;10.77;5.18;;;6.90;99.90;;;;;;5093260;28;20070;-48
2022/04/27 02:48:16;;;;;;;10.50;5.85;;;7.00;99.90;;;;;;5093453;28;20050;-44
2022/04/27 02:53:26;;;;;;;15.30;6.22;;;7.80;99.90;;;;;;5092500;28;20061;-49
2022/04/27 02:55:52;;;;;;;16.75;5.80;;;6.70;99.90;;;;;;5093853;28;20036;-49
2022/04/27 02:58:18;;;;;;;10.25;4.65;;;7.00;99.90;;;;;;5094012;28;20111;-48
2022/04/27 03:00:44;;;;;;;9.57;4.40;;;6.90;99.90;;;;;;5093066;28;20039;-49
2022/04/27 03:03:11;;;;;;;9.15;3.90;;;6.90;99.90;;;;;;5092455;28;20079;-48
2022/04/27 03:05:36;;;;;;;9.50;4.00;;;6.80;99.90;;;;;;5093594;28;20568;-49
2022/04/27 03:08:02;;;;;;;7.15;4.00;;;6.80;99.90;;;;;;5093519;28;20039;-49
2022/04/27 03:10:28;;;;;;;8.30;4.47;;;7.00;99.90;;;;;;5091948;28;20096;-49
2022/04/27 03:12:54;;;;;;;9.50;4.65;;;6.90;99.90;;;;;;5094201;28;20424;-48
2022/04/27 03:15:22;;;;;;;11.70;4.75;;;6.90;99.90;;;;;;5127082;27;20092;-46
2022/04/27 03:18:16;;;;;;;6.95;4.20;;;7.00;99.90;;;;;;5093571;28;20049;-47
2022/04/27 03:20:34;;;;;;;6.40;4.03;;;6.90;99.90;;;;;;5094816;28;20059;-45
2022/04/27 03:23:01;;;;;;;8.80;3.95;;;6.80;99.90;;;;;;5093141;28;20043;-48
2022/04/27 03:25:27;;;;;;;8.45;4.15;;;7.90;99.90;;;;;;5093414;28;20067;-46
2022/04/27 03:27:54;;;;;;;10.48;4.18;;;6.90;99.90;;;;;;5093489;28;20074;-47
2022/04/27 03:30:20;;;;;;;8.45;4.85;;;6.90;99.90;;;;;;5092494;28;20567;-47
2022/04/27 03:32:45;;;;;;;9.07;4.72;;;6.90;99.90;;;;;;5093065;28;20488;-44
2022/04/27 03:35:11;;;;;;;9.82;4.72;;;6.90;99.90;;;;;;5090135;28;20446;-49
2022/04/27 03:37:37;;;;;;;10.65;4.68;;;8.00;99.90;;;;;;5091230;28;20047;-49
2022/04/27 03:40:04;;;;;;;9.45;4.82;;;6.90;99.90;;;;;;5092827;28;20101;-48
2022/04/27 03:42:29;;;;;;;9.43;4.32;;;7.00;99.90;;;;;;5092771;28;20067;-49
2022/04/27 03:44:55;;;;;;;9.68;3.90;;;6.90;99.90;;;;;;5094510;28;20509;-47
2022/04/27 03:47:20;;;;;;;8.25;4.30;;;7.00;99.90;;;;;;5092536;28;20032;-45
2022/04/27 03:49:48;;;;;;;7.90;4.30;;;8.00;99.90;;;;;;5091893;28;20843;-46
2022/04/27 03:52:14;;;;;;;12.43;5.70;;;6.70;99.90;;;;;;5093726;28;20078;-48
2022/04/27 03:54:40;;;;;;;8.75;4.18;;;7.00;99.90;;;;;;5092821;28;20130;-48
2022/04/27 03:57:05;;;;;;;8.57;3.83;;;6.70;99.90;;;;;;5093027;28;20050;-45
2022/04/27 03:59:34;;;;;;;11.00;4.63;;;6.80;99.90;;;;;;5093155;28;20441;-49
2022/04/27 04:02:00;;;;;;;10.77;4.30;;;6.90;99.90;;;;;;5124894;27;20055;-44
2022/04/27 04:04:26;;;;;;;7.10;4.32;;;6.70;99.90;;;;;;5093379;28;20091;-48
2022/04/27 04:06:51;;;;;;;8.32;5.03;;;6.80;99.90;;;;;;5093410;28;20046;-46
2022/04/27 04:09:19;;;;;;;11.02;4.78;;;6.80;99.90;;;;;;5092745;28;20418;-47
2022/04/27 04:11:44;;;;;;;7.93;4.63;;;6.70;99.90;;;;;;5091539;28;20555;-44
2022/04/27 04:14:10;;;;;;;9.77;4.95;;;6.80;99.90;;;;;;5090496;28;20039;-49
2022/04/27 04:16:36;;;;;;;10.38;4.35;;;6.70;99.90;;;;;;5092265;28;20114;-46
2022/04/27 04:19:02;;;;;;;16.88;4.53;;;6.80;99.90;;;;;;5093290;28;20031;-46
2022/04/27 04:21:27;;;;;;;12.75;3.95;;;6.80;99.90;;;;;;5072973;28;20051;-45
2022/04/27 04:23:53;;;;;;;6.82;2.97;;;6.70;99.90;;;;;;5093724;28;20320;-49
2022/04/27 04:29:03;;;;;;;5.68;2.20;;;6.90;99.90;;;;;;5093409;28;20054;-45
2022/04/27 04:31:29;;;;;;;4.43;1.80;;;6.90;99.90;;;;;;5093324;28;20587;-48
2022/04/27 04:33:55;;;;;;;6.43;2.05;;;7.00;99.90;;;;;;5092712;28;20090;-50
2022/04/27 04:36:24;;;;;;;10.73;2.10;;;7.00;99.90;;;;;;5097748;28;20111;-49
2022/04/27 04:38:50;;;;;;;7.43;2.40;;;7.00;99.90;;;;;;5096283;28;20043;-49
2022/04/27 04:41:16;;;;;;;4.03;2.00;;;7.10;99.90;;;;;;5096895;28;20530;-47
2022/04/27 04:43:43;;;;;;;6.68;2.83;;;7.10;99.90;;;;;;5096123;28;20075;-46
2022/04/27 04:46:09;;;;;;;6.15;3.53;;;7.10;99.90;;;;;;5096178;28;20039;-49
2022/04/27 04:48:35;;;;;;;7.32;3.97;;;7.20;99.90;;;;;;5097111;28;20043;-46
2022/04/27 04:51:02;;;;;;;7.78;3.97;;;7.00;99.90;;;;;;5095990;28;20709;-46
2022/04/27 04:53:28;;;;;;;8.85;4.13;;;7.20;99.90;;;;;;5095829;28;20592;-47
2022/04/27 04:55:54;;;;;;;11.30;4.80;;;7.30;99.90;;;;;;5095317;28;20108;-49
2022/04/27 04:58:20;;;;;;;7.88;4.18;;;7.20;99.90;;;;;;5095211;28;20082;-50
2022/04/27 05:00:48;;;;;;;6.75;4.22;;;9.10;99.90;;;;;;5095627;28;20782;-47
2022/04/27 05:03:14;;;;;;;8.40;4.45;;;7.20;99.90;;;;;;5095636;28;20054;-49
2022/04/27 05:05:41;;;;;;;7.68;4.30;;;7.60;99.90;;;;;;5094024;28;20044;-49
2022/04/27 05:08:09;;;;;;;8.02;4.28;;;7.20;99.90;;;;;;5095653;28;20043;-46
2022/04/27 05:10:35;;;;;;;13.32;5.95;;;7.00;99.90;;;;;;5096463;28;20086;-48
2022/04/27 05:13:01;;;;;;;5.47;4.05;;;7.20;99.90;;;;;;5094414;28;20083;-49
2022/04/27 05:15:26;;;;;;;8.90;4.45;;;7.30;99.90;;;;;;5095202;28;20139;-49
2022/04/27 05:17:52;;;;;;;6.97;4.05;;;7.20;99.90;;;;;;5095184;28;20130;-49
2022/04/27 05:20:18;;;;;;;8.90;4.22;;;7.00;99.90;;;;;;5095948;28;20040;-46
2022/04/27 05:22:44;;;;;;;9.02;4.55;;;7.10;99.90;;;;;;5094994;27;20043;-46
2022/04/27 05:25:10;;;;;;;7.13;4.45;;;7.20;99.90;;;;;;5094311;28;20038;-49
2022/04/27 05:27:38;;;;;;;8.32;4.45;;;7.30;99.90;;;;;;5095863;28;20059;-50
2022/04/27 05:32:50;;;;;;;9.77;6.68;;;7.20;99.90;;;;;;5095556;28;20523;-46
2022/04/27 05:35:16;;;;;;;9.60;5.15;;;7.40;99.90;;;;;;5095911;28;20047;-46
2022/04/27 05:37:42;;;;;;;7.97;4.20;;;8.40;99.90;;;;;;5095104;28;20079;-50
2022/04/27 05:40:09;;;;;;;6.82;3.75;;;7.50;99.90;;;;;;5096852;28;21304;-48
2022/04/27 05:42:36;;;;;;;9.48;4.85;;;7.30;99.90;;;;;;5093998;28;20051;-45
2022/04/27 05:45:07;;;;;;;9.23;4.43;;;8.70;99.90;;;;;;5093691;28;20070;-45
2022/04/27 05:47:35;;;;;;;9.75;4.57;;;7.40;99.90;;;;;;5091165;28;20035;-47
2022/04/27 05:50:04;;;;;;;7.85;4.47;;;7.60;99.90;;;;;;5094201;28;20095;-50
2022/04/27 05:52:30;;;;;;;8.55;4.47;;;8.70;99.90;;;;;;5096139;28;20086;-45
2022/04/27 05:54:57;;;;;;;6.78;4.63;;;7.90;99.90;;;;;;5095128;28;20047;-45
2022/04/27 05:57:23;;;;;;;7.72;4.00;;;7.70;99.90;;;;;;5093480;28;20822;-49
2022/04/27 05:59:49;;;;;;;8.07;3.83;;;7.80;99.90;;;;;;5093576;28;20389;-49
2022/04/27 06:02:18;;;;;;;8.38;3.92;;;8.40;99.90;;;;;;5095408;28;20047;-47
2022/04/27 06:04:43;;;;;;;6.85;3.85;;;7.90;99.90;;;;;;5094882;28;20297;-49
2022/04/27 06:07:09;;;;;;;7.63;4.20;;;7.80;99.90;;;;;;5094453;28;20028;-48
2022/04/27 06:09:35;;;;;;;7.50;3.78;;;7.90;99.90;;;;;;5094158;28;20511;-46
2022/04/27 06:12:01;;;;;;;6.43;3.75;;;7.80;99.90;;;;;;5094453;28;20266;-48
2022/04/27 06:14:26;;;;;;;6.75;4.03;;;7.90;99.90;;;;;;5095284;28;20047;-48
2022/04/27 06:16:52;;;;;;;7.65;3.88;;;9.10;99.90;;;;;;5093942;28;20147;-48
2022/04/27 06:19:18;;;;;;;8.48;4.70;;;7.90;99.90;;;;;;5094595;28;20401;-48
2022/04/27 06:21:45;;;;;;;7.68;3.72;;;8.40;99.90;;;;;;5095700;28;20086;-49
2022/04/27 06:24:11;;;;;;;7.78;3.65;;;8.00;99.90;;;;;;5094887;28;20048;-47
2022/04/27 06:26:37;;;;;;;12.43;4.55;;;8.10;99.90;;;;;;5093803;28;20333;-49
2022/04/27 06:29:03;;;;;;;6.80;3.53;;;8.20;99.90;;;;;;5093981;28;20055;-48
2022/04/27 06:31:30;;;;;;;7.07;4.40;;;8.10;99.90;;;;;;5094205;27;20032;-50
2022/04/27 06:33:57;;;;;;;12.45;4.63;;;9.00;99.90;;;;;;5093460;28;20047;-50
2022/04/27 06:36:24;;;;;;;7.55;4.13;;;8.80;99.90;;;;;;5094029;28;20366;-48
2022/04/27 06:38:50;;;;;;;8.52;3.40;;;9.30;99.90;;;;;;5093168;28;20162;-46
2022/04/27 06:41:16;;;;;;;11.80;3.22;;;8.20;99.90;;;;;;5093963;28;20051;-49
2022/04/27 06:43:41;;;;;;;6.10;3.20;;;8.60;99.90;;;;;;5093452;28;20043;-48
2022/04/27 06:46:08;;;;;;;8.77;2.75;;;8.50;99.90;;;;;;5093082;28;20039;-49
2022/04/27 06:48:33;;;;;;;30.98;4.72;;;8.50;99.90;;;;;;5093824;28;20260;-46
2022/04/27 06:50:59;;;;;;;8.32;2.40;;;8.80;99.90;;;;;;5091940;27;20457;-46
2022/04/27 06:53:25;;;;;;;12.65;2.58;;;8.90;99.90;;;;;;5094362;28;20036;-48
2022/04/27 06:55:51;;;;;;;7.40;1.80;;;9.00;99.90;;;;;;5094778;28;20043;-50
2022/04/27 06:58:17;;;;;;;6.82;1.70;;;9.00;99.90;;;;;;5093085;28;20377;-48
2022/04/27 07:00:42;;;;;;;6.00;1.70;;;8.90;99.90;;;;;;5094050;28;20050;-48
2022/04/27 07:03:08;;;;;;;12.48;2.28;;;9.20;99.90;;;;;;5093468;28;21079;-49
2022/04/27 07:05:34;;;;;;;6.55;2.13;;;11.00;99.90;;;;;;5094431;28;20042;-48
2022/04/27 07:08:00;;;;;;;7.47;1.80;;;9.30;99.90;;;;;;5093521;28;20039;-48
2022/04/27 07:10:26;;;;;;;7.70;1.77;;;9.40;99.90;;;;;;5091975;28;20145;-48
2022/04/27 07:12:52;;;;;;;6.70;1.50;;;10.40;99.90;;;;;;5093157;28;20043;-47
2022/04/27 07:15:18;;;;;;;7.30;1.45;;;9.40;99.90;;;;;;5093310;28;20147;-46
2022/04/27 07:17:44;;;;;;;6.95;1.95;;;9.40;99.90;;;;;;5093408;27;20036;-47
2022/04/27 07:20:10;;;;;;;8.73;1.60;;;9.80;99.90;;;;;;5094530;28;20039;-47
2022/04/27 07:22:36;;;;;;;7.68;1.60;;;10.80;99.90;;;;;;5094563;28;20064;-49
2022/04/27 07:25:01;;;;;;;8.40;1.58;;;9.70;99.90;;;;;;5092929;28;20491;-49
2022/04/27 07:27:27;;;;;;;7.43;1.40;;;9.80;99.90;;;;;;5092456;28;20040;-48
2022/04/27 07:29:53;;;;;;;7.88;1.50;;;9.70;99.90;;;;;;5092723;28;20032;-50
2022/04/27 07:32:19;;;;;;;8.50;1.80;;;10.00;99.90;;;;;;5091753;28;20376;-51
2022/04/27 07:34:51;;;;;;;6.68;1.70;;;11.60;99.90;;;;;;5092327;28;20043;-49
2022/04/27 07:37:17;;;;;;;7.68;2.00;;;9.90;99.90;;;;;;5090925;28;20465;-49
2022/04/27 07:39:43;;;;;;;6.20;2.30;;;9.90;99.90;;;;;;5093238;28;20051;-47
2022/04/27 07:42:10;;;;;;;32.22;5.05;;;9.80;99.90;;;;;;5092953;28;20047;-48
2022/04/27 07:44:36;;;;;;;5.47;1.90;;;9.90;99.90;;;;;;5092768;28;20222;-50
2022/04/27 07:47:02;;;;;;;10.18;2.25;;;10.00;99.90;;;;;;5092086;28;20114;-48
2022/04/27 07:49:27;;;;;;;7.60;2.05;;;9.70;99.90;;;;;;5092770;28;20173;-48
2022/04/27 07:51:54;;;;;;;10.65;2.55;;;10.50;99.90;;;;;;5092796;28;20118;-49
2022/04/27 07:54:20;;;;;;;6.45;2.78;;;9.80;99.90;;;;;;5092229;28;20051;-47
2022/04/27 07:56:47;;;;;;;6.72;2.17;;;11.90;99.90;;;;;;5091009;28;22565;-49
2022/04/27 07:59:13;;;;;;;12.68;2.58;;;9.90;99.90;;;;;;5092745;28;20054;-44
2022/04/27 08:01:39;;;;;;;9.60;2.35;;;10.70;99.90;;;;;;5092534;28;20048;-49
2022/04/27 08:04:06;;;;;;;10.13;2.80;;;10.00;99.90;;;;;;5091463;28;20150;-49
2022/04/27 08:06:32;;;;;;;7.85;2.42;;;10.00;99.90;;;;;;5091706;28;20047;-48
2022/04/27 08:08:58;;;;;;;8.88;2.42;;;10.00;99.90;;;;;;5093483;28;20400;-48
2022/04/27 08:11:24;;;;;;;7.03;2.22;;;10.50;99.90;;;;;;5096885;28;20035;-50
2022/04/27 08:13:50;;;;;;;8.57;2.33;;;9.00;99.90;;;;;;5097046;28;20053;-49
2022/04/27 08:16:15;;;;;;;11.48;3.28;;;10.00;99.90;;;;;;5096919;28;20114;-49
2022/04/27 08:18:41;;;;;;;8.63;2.22;;;10.00;99.90;;;;;;5095442;28;20047;-49
2022/04/27 08:21:16;;;;;;;9.10;2.47;;;10.30;99.90;;;;;;5096297;28;20039;-48
2022/04/27 08:23:48;;;;;;;12.90;2.75;;;10.70;99.90;;;;;;5097371;28;20652;-49
2022/04/27 08:26:15;;;;;;;12.18;2.58;;;10.00;99.90;;;;;;5096048;28;20035;-49
2022/04/27 08:28:41;;;;;;;14.13;2.88;;;10.30;99.90;;;;;;5096989;28;20090;-49
2022/04/27 08:31:08;;;;;;;9.65;2.38;;;10.10;99.90;;;;;;5096372;28;20575;-48
2022/04/27 08:33:35;;;;;;;17.38;4.00;;;10.10;99.90;;;;;;5097750;28;20407;-50
2022/04/27 08:36:03;;;;;;;10.43;2.20;;;10.10;99.90;;;;;;5097162;28;20043;-48
2022/04/27 08:38:30;;;;;;;14.35;2.40;;;10.00;99.90;;;;;;5096422;28;20054;-49
2022/04/27 08:40:57;;;;;;;12.88;2.70;;;10.20;99.90;;;;;;5096936;28;20067;-47
2022/04/27 08:43:23;;;;;;;15.07;2.90;;;10.00;99.90;;;;;;5131196;27;20043;-48
2022/04/27 08:45:49;;;;;;;14.27;2.80;;;10.10;99.90;;;;;;5096042;28;20481;-45
2022/04/27 08:48:17;;;;;;;10.57;2.53;;;10.00;99.90;;;;;;5095166;28;20576;-48
2022/04/27 08:50:47;;;;;;;10.80;2.40;;;11.20;99.90;;;;;;5096107;28;20524;-48
2022/04/27 08:53:16;;;;;;;12.18;2.38;;;9.90;99.90;;;;;;5097791;27;20462;-50
2022/04/27 08:55:43;;;;;;;11.73;2.58;;;10.00;99.90;;;;;;5095633;28;20126;-51
2022/04/27 08:58:16;;;;;;;16.60;3.30;;;10.00;99.90;;;;;;5096499;28;20040;-49
2022/04/27 09:00:43;;;;;;;11.50;2.17;;;7.80;99.90;;;;;;5094623;28;20039;-48
2022/04/27 09:03:26;;;;;;;12.07;2.22;;;10.00;99.90;;;;;;5095260;28;20067;-50
2022/04/27 09:06:04;;;;;;;12.05;2.50;;;10.80;99.90;;;;;;5094595;28;20039;-49
2022/04/27 09:08:44;;;;;;;7.75;1.85;;;10.00;99.90;;;;;;5097010;28;20092;-48
2022/04/27 09:11:14;;;;;;;10.27;2.03;;;9.90;99.90;;;;;;5094410;28;20031;-48
2022/04/27 09:13:40;;;;;;;13.75;2.53;;;9.80;99.90;;;;;;5095863;28;20486;-48
2022/04/27 09:16:08;;;;;;;12.57;2.47;;;10.70;99.90;;;;;;5095687;28;20032;-47
2022/04/27 09:21:55;;;;;;;14.35;2.47;;;10.70;99.90;;;;;;5094066;28;20058;-46
2022/04/27 09:24:23;;;;;;;10.77;2.55;;;9.90;99.90;;;;;;5095516;28;20530;-44
2022/04/27 09:26:59;;;;;;;9.48;2.08;;;9.90;99.90;;;;;;5095207;28;20035;-47
2022/04/27 09:29:27;;;;;;;12.30;2.10;;;11.10;99.90;;;;;;5093983;28;20051;-46
2022/04/27 09:31:57;;;;;;;7.57;2.05;;;9.90;99.90;;;;;;5092868;28;20078;-49
2022/04/27 09:34:29;;;;;;;12.48;2.10;;;10.10;99.90;;;;;;5094756;28;20039;-46
2022/04/27 09:37:17;;;;;;;12.23;2.58;;;10.80;99.90;;;;;;5093780;28;20042;-49
2022/04/27 09:40:05;;;;;;;9.15;2.10;;;10.10;99.90;;;;;;5094241;28;20124;-48
2022/04/27 09:42:33;;;;;;;17.88;2.75;;;9.90;99.90;;;;;;5095250;28;20089;-46
2022/04/27 09:45:19;;;;;;;15.55;2.40;;;10.10;99.90;;;;;;5094243;28;20047;-49
2022/04/27 09:48:03;;;;;;;12.15;2.38;;;10.60;99.90;;;;;;5094334;28;20039;-50
2022/04/27 09:50:49;;;;;;;12.00;2.13;;;10.10;99.90;;;;;;5095610;28;20027;-47
2022/04/27 09:53:18;;;;;;;12.27;2.35;;;10.20;99.90;;;;;;5095558;28;20097;-50
2022/04/27 09:55:49;;;;;;;11.98;2.20;;;12.20;99.90;;;;;;5093667;28;20043;-49
2022/04/27 09:58:18;;;;;;;10.25;3.08;;;10.60;99.90;;;;;;5093557;28;21135;-46
2022/04/27 10:00:45;;;;;;;13.90;2.60;;;10.20;99.90;;;;;;5093883;28;20047;-48
2022/04/27 10:03:14;;;;;;;11.95;2.67;;;10.30;99.90;;;;;;5126979;27;20047;-48
2022/04/27 10:05:40;;;;;;;10.35;2.63;;;10.40;99.90;;;;;;5093687;28;20101;-50
2022/04/27 10:08:08;;;;;;;10.18;2.60;;;10.50;99.90;;;;;;5094059;28;20120;-47
2022/04/27 10:10:36;;;;;;;14.05;2.53;;;10.40;99.90;;;;;;5094051;28;20047;-44
2022/04/27 10:13:02;;;;;;;13.48;2.53;;;11.00;99.90;;;;;;5092601;28;20046;-47
2022/04/27 10:15:31;;;;;;;10.60;1.70;;;10.50;99.90;;;;;;5093948;28;20046;-50
2022/04/27 10:17:57;;;;;;;14.70;3.30;;;10.60;99.90;;;;;;5093758;28;20081;-50
2022/04/27 10:20:42;;;;;;;15.60;2.50;;;10.80;99.90;;;;;;5094228;28;20051;-52
2022/04/27 10:23:32;;;;;;;15.98;2.50;;;10.70;99.90;;;;;;5094447;28;20711;-49
2022/04/27 10:26:33;;;;;;;8.77;2.00;;;10.60;99.90;;;;;;5093257;28;21405;-50
2022/04/27 10:29:08;;;;;;;10.07;2.33;;;12.70;99.90;;;;;;5094005;28;20048;-50
2022/04/27 10:32:05;;;;;;;14.73;2.83;;;11.10;99.90;;;;;;5090652;28;20044;-50
2022/04/27 10:34:32;;;;;;;14.77;2.55;;;11.00;99.90;;;;;;5044150;28;20058;-49
2022/04/27 10:36:59;;;;;;;14.13;2.45;;;11.30;99.90;;;;;;5043018;28;20044;-48
2022/04/27 10:39:29;;;;;;;12.07;2.00;;;11.00;99.90;;;;;;5045101;28;20096;-49
2022/04/27 10:41:57;;;;;;;11.90;2.50;;;11.10;99.90;;;;;;5045949;28;20040;-55
2022/04/27 10:44:50;;;;;;;12.35;2.22;;;11.10;99.90;;;;;;5022026;28;20109;-48
2022/04/27 10:47:21;;;;;;;11.50;2.35;;;11.10;99.90;;;;;;5042387;28;20765;-50
2022/04/27 10:49:50;;;;;;;10.13;2.28;;;12.40;99.90;;;;;;5031080;28;20048;-46
2022/04/27 10:52:22;;;;;;;31.77;4.53;;;11.30;99.90;;;;;;5044422;28;20052;-49
2022/04/27 10:54:48;;;;;;;15.23;3.00;;;11.30;99.90;;;;;;5045828;28;20451;-46
2022/04/27 10:57:16;;;;;;;12.90;3.80;;;11.30;99.90;;;;;;5044415;28;20282;-51
2022/04/27 10:59:43;;;;;;;26.45;2.65;;;11.40;99.90;;;;;;5043774;28;20052;-51
2022/04/27 11:02:47;;;;;;;15.75;2.40;;;11.50;99.90;;;;;;5043425;28;20101;-48
2022/04/27 11:05:13;;;;;;;13.65;2.72;;;11.60;99.90;;;;;;4987422;28;20168;-51
2022/04/27 11:07:42;;;;;;;13.48;3.00;;;11.70;99.90;;;;;;4988302;28;20037;-47
2022/04/27 11:10:14;;;;;;;17.75;2.50;;;11.60;99.90;;;;;;4997353;28;20555;-49
2022/04/27 11:12:44;;;;;;;10.57;2.30;;;11.90;99.90;;;;;;5031193;28;20124;-50
2022/04/27 11:15:11;;;;;;;15.55;2.45;;;12.20;99.90;;;;;;5046472;28;20118;-51
2022/04/27 11:17:40;;;;;;;10.27;2.15;;;12.20;99.90;;;;;;5047537;28;20045;-49
2022/04/27 11:20:23;;;;;;;13.50;2.45;;;13.10;99.90;;;;;;5047537;28;20044;-50
2022/04/27 11:22:49;;;;;;;10.90;2.03;;;12.10;99.90;;;;;;5048476;28;20056;-47
2022/04/27 11:25:32;;;;;;;9.73;2.45;;;12.50;99.90;;;;;;5048034;28;20040;-51
2022/04/27 11:27:59;;;;;;;13.10;3.28;;;12.70;99.90;;;;;;5048414;28;20068;-49
2022/04/27 11:30:27;;;;;;;10.18;2.20;;;14.00;99.90;;;;;;5049199;28;20137;-50
2022/04/27 11:32:54;;;;;;;13.15;2.67;;;14.00;99.90;;;;;;5049301;28;20718;-46
2022/04/27 11:35:23;;;;;;;13.23;2.60;;;15.10;99.90;;;;;;5058435;28;20067;-48
2022/04/27 11:37:57;;;;;;;9.95;2.20;;;13.00;99.90;;;;;;5091372;28;20143;-49
2022/04/27 11:40:27;;;;;;;13.95;2.85;;;12.80;99.90;;;;;;5091607;28;20040;-45
2022/04/27 11:42:53;;;;;;;11.32;2.08;;;12.80;99.90;;;;;;5091510;28;20071;-47
2022/04/27 11:45:21;;;;;;;12.43;2.63;;;13.40;99.90;;;;;;5092033;28;20036;-49
2022/04/27 11:48:04;;;;;;;18.02;2.63;;;13.10;99.90;;;;;;5092353;28;20131;-47
2022/04/27 11:50:32;;;;;;;9.75;1.90;;;13.10;99.90;;;;;;5089713;28;20039;-51
2022/04/27 11:53:11;;;;;;;9.95;2.28;;;13.10;99.90;;;;;;5090079;28;20453;-52
2022/04/27 11:55:39;;;;;;;10.93;2.35;;;13.00;99.90;;;;;;5090238;28;20044;-49
2022/04/27 11:58:07;;;;;;;10.73;1.83;;;13.10;99.90;;;;;;5088632;28;20574;-49
2022/04/27 12:00:34;;;;;;;10.63;2.08;;;15.10;99.90;;;;;;5089846;28;20523;-51
2022/04/27 12:03:04;;;;;;;12.30;2.60;;;13.30;99.90;;;;;;5090956;28;20279;-48
2022/04/27 12:05:32;;;;;;;8.18;2.78;;;11.60;99.90;;;;;;5091310;28;20035;-50
2022/04/27 12:08:01;;;;;;;10.98;2.63;;;13.00;99.90;;;;;;5089390;28;20093;-47
2022/04/27 12:10:29;;;;;;;11.82;2.00;;;12.80;99.90;;;;;;5092292;28;20551;-48
2022/04/27 12:12:59;;;;;;;8.82;2.50;;;12.50;99.90;;;;;;5089411;28;20400;-49
2022/04/27 12:15:26;;;;;;;10.82;2.53;;;12.90;99.90;;;;;;5090781;28;20047;-49
2022/04/27 12:17:58;;;;;;;10.52;2.45;;;13.50;99.90;;;;;;5089667;28;20078;-51
2022/04/27 12:20:29;;;;;;;12.75;2.28;;;12.40;99.90;;;;;;5091730;28;20043;-49
2022/04/27 12:23:07;;;;;;;9.17;2.23;;;12.50;99.90;;;;;;5092629;28;20039;-51
2022/04/27 12:25:49;;;;;;;9.05;2.25;;;12.30;99.90;;;;;;5090059;28;20780;-51
2022/04/27 12:28:19;;;;;;;9.95;1.80;;;12.70;99.90;;;;;;5091503;28;20073;-50
2022/04/27 12:30:53;;;;;;;15.07;2.45;;;13.60;99.90;;;;;;5090057;28;20043;-49
2022/04/27 12:33:26;;;;;;;11.48;2.42;;;13.20;99.90;;;;;;5090769;28;20096;-51
2022/04/27 12:39:03;;;;;;;7.43;2.03;;;12.20;99.90;;;;;;5089866;28;19927;-44
2022/04/27 12:41:47;;;;;;;10.95;2.75;;;13.10;99.90;;;;;;5091671;28;20040;-48
2022/04/27 12:44:14;;;;;;;14.88;2.90;;;12.10;99.90;;;;;;5092331;28;20036;-45
2022/04/27 12:46:59;;;;;;;10.05;2.47;;;12.10;99.90;;;;;;5092718;28;20039;-49
2022/04/27 12:49:29;;;;;;;12.05;2.22;;;12.20;99.90;;;;;;5091670;28;20035;-50
2022/04/27 12:51:57;;;;;;;11.70;2.58;;;12.90;99.90;;;;;;5091519;28;20050;-46
2022/04/27 12:54:34;;;;;;;11.30;2.42;;;12.20;99.90;;;;;;5092965;28;20096;-47
2022/04/27 12:57:00;;;;;;;7.82;2.03;;;13.70;99.90;;;;;;5093354;28;20046;-44
2022/04/27 12:59:25;;;;;;;11.05;2.30;;;12.10;99.90;;;;;;5094530;28;20051;-47
2022/04/27 13:02:04;;;;;;;11.57;2.33;;;12.10;99.90;;;;;;5095770;28;20040;-50
2022/04/27 13:04:31;;;;;;;10.98;2.20;;;12.10;99.90;;;;;;5093528;28;20610;-47
2022/04/27 13:06:58;;;;;;;9.25;2.28;;;12.50;99.90;;;;;;5095176;28;20716;-50
2022/04/27 13:12:10;;;;;;;13.02;2.67;;;12.30;99.90;;;;;;5094371;28;20104;-46
2022/04/27 13:14:36;;;;;;;13.25;2.70;;;12.10;99.90;;;;;;5094892;28;20824;-47